sensor_id;sensor_type;location;lat;lon;timestamp;pressure;altitude;pressure_sealevel;temperature;humidity
64753;BME280;61095;52.454;16.948;2023-08-01T06:01:30;98977.22;;;22.05;59.21
64753;BME280;61095;52.454;16.948;2023-08-01T06:06:30;98966.94;;;22.00;59.56
64753;BME280;61095;52.454;16.948;2023-08-01T06:11:31;98968.00;;;22.07;59.44
64753;BME280;61095;52.454;16.948;2023-08-01T06:16:33;98972.53;;;22.07;59.54
64753;BME280;61095;52.454;16.948;2023-08-01T06:21:33;98965.03;;;22.19;59.53
64753;BME280;61095;52.454;16.948;2023-08-01T06:26:33;98950.59;;;22.20;59.66
64753;BME280;61095;52.454;16.948;2023-08-01T06:31:35;98943.38;;;22.20;59.67
64753;BME280;61095;52.454;16.948;2023-08-01T06:36:35;98947.22;;;22.17;59.51
64753;BME280;61095;52.454;16.948;2023-08-01T06:41:36;98939.16;;;22.17;59.71
64753;BME280;61095;52.454;16.948;2023-08-01T06:46:37;98932.59;;;22.12;59.79
64753;BME280;61095;52.454;16.948;2023-08-01T06:51:38;98935.28;;;22.12;59.82
64753;BME280;61095;52.454;16.948;2023-08-01T06:56:38;98925.56;;;22.19;59.78
64753;BME280;61095;52.454;16.948;2023-08-01T07:01:40;98918.34;;;22.20;59.75
64753;BME280;61095;52.454;16.948;2023-08-01T07:06:40;98922.56;;;22.22;59.78
64753;BME280;61095;52.454;16.948;2023-08-01T07:11:41;98913.66;;;22.22;59.78
64753;BME280;61095;52.454;16.948;2023-08-01T07:16:42;98913.69;;;22.30;59.89
64753;BME280;61095;52.454;16.948;2023-08-01T07:21:43;98915.25;;;22.40;59.67
64753;BME280;61095;52.454;16.948;2023-08-01T07:26:43;98905.22;;;22.42;59.83
64753;BME280;61095;52.454;16.948;2023-08-01T07:31:45;98892.88;;;22.58;59.31
64753;BME280;61095;52.454;16.948;2023-08-01T07:36:45;98898.59;;;22.63;59.34
64753;BME280;61095;52.454;16.948;2023-08-01T07:41:46;98892.53;;;22.61;59.22
64753;BME280;61095;52.454;16.948;2023-08-01T07:46:48;98881.28;;;22.65;58.94
64753;BME280;61095;52.454;16.948;2023-08-01T07:51:51;98880.81;;;22.78;58.95
64753;BME280;61095;52.454;16.948;2023-08-01T07:56:51;98876.97;;;22.81;58.82
64753;BME280;61095;52.454;16.948;2023-08-01T08:01:53;98877.13;;;22.79;58.54
64753;BME280;61095;52.454;16.948;2023-08-01T08:06:54;98873.41;;;22.72;58.59
64753;BME280;61095;52.454;16.948;2023-08-01T08:11:54;98865.66;;;22.69;58.56
64753;BME280;61095;52.454;16.948;2023-08-01T08:16:56;98854.06;;;22.68;58.81
64753;BME280;61095;52.454;16.948;2023-08-01T08:21:56;98847.69;;;22.69;58.61
64753;BME280;61095;52.454;16.948;2023-08-01T08:26:56;98857.63;;;22.77;58.43
64753;BME280;61095;52.454;16.948;2023-08-01T08:31:58;98846.53;;;22.80;58.23
64753;BME280;61095;52.454;16.948;2023-08-01T08:36:59;98833.41;;;22.77;58.48
64753;BME280;61095;52.454;16.948;2023-08-01T08:41:59;98830.22;;;22.73;58.53
64753;BME280;61095;52.454;16.948;2023-08-01T08:47:03;98820.63;;;22.71;58.62
64753;BME280;61095;52.454;16.948;2023-08-01T08:52:05;98810.06;;;22.77;58.47
64753;BME280;61095;52.454;16.948;2023-08-01T08:57:06;98819.97;;;22.85;58.24
64753;BME280;61095;52.454;16.948;2023-08-01T09:02:07;98814.13;;;22.90;58.41
64753;BME280;61095;52.454;16.948;2023-08-01T09:07:09;98815.13;;;22.97;58.42
64753;BME280;61095;52.454;16.948;2023-08-01T09:12:10;98807.22;;;22.95;58.40
64753;BME280;61095;52.454;16.948;2023-08-01T09:17:13;98798.00;;;22.98;58.71
64753;BME280;61095;52.454;16.948;2023-08-01T09:22:16;98792.28;;;23.01;58.78
64753;BME280;61095;52.454;16.948;2023-08-01T09:27:17;98788.75;;;23.00;58.83
64753;BME280;61095;52.454;16.948;2023-08-01T09:32:18;98773.78;;;22.98;58.80
64753;BME280;61095;52.454;16.948;2023-08-01T09:37:19;98773.28;;;22.94;59.24
64753;BME280;61095;52.454;16.948;2023-08-01T09:42:20;98765.53;;;22.99;59.32
64753;BME280;61095;52.454;16.948;2023-08-01T09:47:22;98776.31;;;22.91;59.57
64753;BME280;61095;52.454;16.948;2023-08-01T09:52:33;98769.03;;;22.75;60.29
64753;BME280;61095;52.454;16.948;2023-08-01T09:57:37;98758.63;;;22.81;60.54
64753;BME280;61095;52.454;16.948;2023-08-01T10:02:42;98753.56;;;22.86;60.50
64753;BME280;61095;52.454;16.948;2023-08-01T10:07:43;98751.06;;;22.68;60.82
64753;BME280;61095;52.454;16.948;2023-08-01T10:12:45;98744.16;;;22.65;61.03
64753;BME280;61095;52.454;16.948;2023-08-01T10:17:47;98743.31;;;22.65;61.14
64753;BME280;61095;52.454;16.948;2023-08-01T10:22:48;98746.69;;;22.59;61.29
64753;BME280;61095;52.454;16.948;2023-08-01T10:27:57;98728.00;;;22.49;61.38
64753;BME280;61095;52.454;16.948;2023-08-01T10:33:00;98724.59;;;22.39;61.69
64753;BME280;61095;52.454;16.948;2023-08-01T10:38:04;98716.00;;;22.27;61.94
64753;BME280;61095;52.454;16.948;2023-08-01T10:43:05;98708.28;;;22.24;62.55
64753;BME280;61095;52.454;16.948;2023-08-01T10:48:08;98707.44;;;22.32;62.27
64753;BME280;61095;52.454;16.948;2023-08-01T10:53:09;98696.88;;;22.38;62.33
64753;BME280;61095;52.454;16.948;2023-08-01T10:58:10;98695.69;;;22.33;62.92
64753;BME280;61095;52.454;16.948;2023-08-01T11:03:11;98687.63;;;22.33;62.96
64753;BME280;61095;52.454;16.948;2023-08-01T11:08:12;98679.78;;;22.47;62.95
64753;BME280;61095;52.454;16.948;2023-08-01T11:13:12;98667.03;;;22.58;62.83
64753;BME280;61095;52.454;16.948;2023-08-01T11:18:14;98653.25;;;22.61;63.25
64753;BME280;61095;52.454;16.948;2023-08-01T11:23:14;98656.44;;;22.72;63.18
64753;BME280;61095;52.454;16.948;2023-08-01T11:28:16;98651.75;;;22.66;62.98
64753;BME280;61095;52.454;16.948;2023-08-01T11:33:20;98646.69;;;22.63;63.12
64753;BME280;61095;52.454;16.948;2023-08-01T11:38:21;98646.03;;;22.61;63.51
64753;BME280;61095;52.454;16.948;2023-08-01T11:43:22;98645.16;;;22.77;62.95
64753;BME280;61095;52.454;16.948;2023-08-01T11:48:24;98652.06;;;22.96;62.94
64753;BME280;61095;52.454;16.948;2023-08-01T11:53:25;98659.75;;;23.07;62.67
64753;BME280;61095;52.454;16.948;2023-08-01T11:58:29;98676.75;;;23.07;62.32
64753;BME280;61095;52.454;16.948;2023-08-01T12:03:31;98673.91;;;23.01;61.98
64753;BME280;61095;52.454;16.948;2023-08-01T12:08:31;98660.28;;;23.02;61.24
64753;BME280;61095;52.454;16.948;2023-08-01T12:13:32;98658.09;;;23.06;61.33
64753;BME280;61095;52.454;16.948;2023-08-01T12:18:34;98663.63;;;23.04;60.76
64753;BME280;61095;52.454;16.948;2023-08-01T12:23:35;98651.03;;;23.05;60.90
64753;BME280;61095;52.454;16.948;2023-08-01T12:28:36;98646.13;;;23.08;60.99
64753;BME280;61095;52.454;16.948;2023-08-01T12:33:38;98638.03;;;23.17;61.06
64753;BME280;61095;52.454;16.948;2023-08-01T12:38:38;98651.47;;;23.25;61.44
64753;BME280;61095;52.454;16.948;2023-08-01T12:43:38;98658.88;;;23.39;61.24
64753;BME280;61095;52.454;16.948;2023-08-01T12:48:40;98643.50;;;23.56;61.41
64753;BME280;61095;52.454;16.948;2023-08-01T12:53:41;98647.41;;;23.84;61.68
64753;BME280;61095;52.454;16.948;2023-08-01T12:58:41;98648.81;;;24.03;61.88
64753;BME280;61095;52.454;16.948;2023-08-01T13:03:43;98647.34;;;24.23;61.77
64753;BME280;61095;52.454;16.948;2023-08-01T13:08:43;98653.47;;;24.40;61.50
64753;BME280;61095;52.454;16.948;2023-08-01T13:13:44;98663.63;;;24.53;61.11
64753;BME280;61095;52.454;16.948;2023-08-01T13:18:45;98681.38;;;24.70;60.78
64753;BME280;61095;52.454;16.948;2023-08-01T13:23:46;98688.22;;;24.81;60.28
64753;BME280;61095;52.454;16.948;2023-08-01T13:28:46;98700.63;;;24.90;59.94
64753;BME280;61095;52.454;16.948;2023-08-01T13:33:48;98690.66;;;24.90;59.45
64753;BME280;61095;52.454;16.948;2023-08-01T13:38:48;98670.50;;;25.01;59.09
64753;BME280;61095;52.454;16.948;2023-08-01T13:43:49;98673.56;;;25.13;58.56
64753;BME280;61095;52.454;16.948;2023-08-01T13:48:51;98655.88;;;25.25;58.29
64753;BME280;61095;52.454;16.948;2023-08-01T13:53:51;98658.19;;;25.36;57.52
64753;BME280;61095;52.454;16.948;2023-08-01T13:58:51;98668.88;;;25.44;57.31
64753;BME280;61095;52.454;16.948;2023-08-01T14:03:53;98668.13;;;25.50;57.04
64753;BME280;61095;52.454;16.948;2023-08-01T14:08:54;98668.59;;;25.54;56.78
64753;BME280;61095;52.454;16.948;2023-08-01T14:13:54;98672.78;;;25.56;56.19
64753;BME280;61095;52.454;16.948;2023-08-01T14:18:56;98668.97;;;25.51;55.37
64753;BME280;61095;52.454;16.948;2023-08-01T14:23:56;98672.13;;;25.40;55.47
64753;BME280;61095;52.454;16.948;2023-08-01T14:28:56;98675.41;;;25.35;55.26
64753;BME280;61095;52.454;16.948;2023-08-01T14:33:58;98684.06;;;25.31;54.92
64753;BME280;61095;52.454;16.948;2023-08-01T14:38:58;98685.09;;;25.30;54.88
64753;BME280;61095;52.454;16.948;2023-08-01T14:43:59;98683.56;;;25.27;54.90
64753;BME280;61095;52.454;16.948;2023-08-01T14:49:00;98669.72;;;25.30;54.95
64753;BME280;61095;52.454;16.948;2023-08-01T14:54:01;98673.25;;;25.31;55.13
64753;BME280;61095;52.454;16.948;2023-08-01T14:59:01;98664.59;;;25.35;54.91
64753;BME280;61095;52.454;16.948;2023-08-01T15:04:03;98676.06;;;25.37;54.75
64753;BME280;61095;52.454;16.948;2023-08-01T15:09:03;98692.91;;;25.39;54.87
64753;BME280;61095;52.454;16.948;2023-08-01T15:14:04;98718.50;;;25.29;54.48
64753;BME280;61095;52.454;16.948;2023-08-01T15:19:05;98676.97;;;25.30;54.14
64753;BME280;61095;52.454;16.948;2023-08-01T15:24:06;98658.59;;;25.25;53.83
64753;BME280;61095;52.454;16.948;2023-08-01T15:29:06;98675.63;;;25.25;53.62
64753;BME280;61095;52.454;16.948;2023-08-01T15:34:08;98700.94;;;25.24;52.80
64753;BME280;61095;52.454;16.948;2023-08-01T15:39:08;98712.56;;;25.33;52.80
64753;BME280;61095;52.454;16.948;2023-08-01T15:44:09;98729.41;;;25.35;52.16
64753;BME280;61095;52.454;16.948;2023-08-01T15:49:11;98726.53;;;25.37;52.35
64753;BME280;61095;52.454;16.948;2023-08-01T15:54:11;98723.16;;;25.35;52.05
64753;BME280;61095;52.454;16.948;2023-08-01T15:59:11;98720.47;;;25.35;51.65
64753;BME280;61095;52.454;16.948;2023-08-01T16:04:13;98725.22;;;25.33;51.97
64753;BME280;61095;52.454;16.948;2023-08-01T16:09:13;98724.84;;;25.36;52.04
64753;BME280;61095;52.454;16.948;2023-08-01T16:14:14;98731.09;;;25.36;52.15
64753;BME280;61095;52.454;16.948;2023-08-01T16:19:15;98741.03;;;25.36;52.28
64753;BME280;61095;52.454;16.948;2023-08-01T16:24:16;98737.69;;;25.34;52.50
64753;BME280;61095;52.454;16.948;2023-08-01T16:29:16;98731.84;;;25.22;52.70
64753;BME280;61095;52.454;16.948;2023-08-01T16:34:18;98732.94;;;25.13;52.89
64753;BME280;61095;52.454;16.948;2023-08-01T16:39:18;98738.34;;;25.13;53.20
64753;BME280;61095;52.454;16.948;2023-08-01T16:44:18;98733.78;;;25.13;53.28
64753;BME280;61095;52.454;16.948;2023-08-01T16:49:20;98754.38;;;25.14;53.39
64753;BME280;61095;52.454;16.948;2023-08-01T16:54:20;98761.81;;;25.12;53.25
64753;BME280;61095;52.454;16.948;2023-08-01T16:59:21;98761.50;;;25.07;53.23
64753;BME280;61095;52.454;16.948;2023-08-01T17:04:23;98771.06;;;24.95;53.34
64753;BME280;61095;52.454;16.948;2023-08-01T17:09:23;98782.22;;;24.92;53.11
64753;BME280;61095;52.454;16.948;2023-08-01T17:14:23;98780.25;;;24.86;52.95
64753;BME280;61095;52.454;16.948;2023-08-01T17:19:25;98774.56;;;24.81;52.70
64753;BME280;61095;52.454;16.948;2023-08-01T17:24:25;98782.31;;;24.76;52.86
64753;BME280;61095;52.454;16.948;2023-08-01T17:29:26;98778.66;;;24.69;52.90
64753;BME280;61095;52.454;16.948;2023-08-01T17:34:27;98793.84;;;24.70;52.99
64753;BME280;61095;52.454;16.948;2023-08-01T17:39:28;98801.63;;;24.64;53.08
64753;BME280;61095;52.454;16.948;2023-08-01T17:44:28;98804.66;;;24.61;53.21
64753;BME280;61095;52.454;16.948;2023-08-01T17:49:30;98828.09;;;24.61;53.46
64753;BME280;61095;52.454;16.948;2023-08-01T17:54:30;98830.97;;;24.59;53.29
64753;BME280;61095;52.454;16.948;2023-08-01T17:59:31;98822.38;;;24.56;53.60
64753;BME280;61095;52.454;16.948;2023-08-01T18:04:33;98820.22;;;24.51;53.85
64753;BME280;61095;52.454;16.948;2023-08-01T18:09:33;98840.28;;;24.49;53.82
64753;BME280;61095;52.454;16.948;2023-08-01T18:14:33;98842.16;;;24.48;54.03
64753;BME280;61095;52.454;16.948;2023-08-01T18:19:35;98860.53;;;24.45;54.19
64753;BME280;61095;52.454;16.948;2023-08-01T18:24:35;98866.28;;;24.42;54.20
64753;BME280;61095;52.454;16.948;2023-08-01T18:29:36;98888.56;;;24.36;54.45
64753;BME280;61095;52.454;16.948;2023-08-01T18:34:37;98893.78;;;24.29;54.32
64753;BME280;61095;52.454;16.948;2023-08-01T18:39:38;98898.34;;;24.20;54.76
64753;BME280;61095;52.454;16.948;2023-08-01T18:44:38;98897.03;;;24.16;54.97
64753;BME280;61095;52.454;16.948;2023-08-01T18:49:40;98893.00;;;24.12;55.14
64753;BME280;61095;52.454;16.948;2023-08-01T18:54:40;98905.13;;;24.08;55.10
64753;BME280;61095;52.454;16.948;2023-08-01T18:59:40;98902.97;;;24.03;55.21
64753;BME280;61095;52.454;16.948;2023-08-01T19:04:42;98906.34;;;23.97;54.97
64753;BME280;61095;52.454;16.948;2023-08-01T19:09:43;98909.69;;;23.91;55.43
64753;BME280;61095;52.454;16.948;2023-08-01T19:14:43;98914.75;;;23.86;55.27
64753;BME280;61095;52.454;16.948;2023-08-01T19:19:45;98927.03;;;23.81;55.72
64753;BME280;61095;52.454;16.948;2023-08-01T19:24:46;98941.19;;;23.75;56.08
64753;BME280;61095;52.454;16.948;2023-08-01T19:29:47;98954.31;;;23.69;55.82
64753;BME280;61095;52.454;16.948;2023-08-01T19:34:50;98957.69;;;23.63;56.21
64753;BME280;61095;52.454;16.948;2023-08-01T19:39:50;98964.59;;;23.58;56.18
64753;BME280;61095;52.454;16.948;2023-08-01T19:44:53;98958.69;;;23.54;56.34
64753;BME280;61095;52.454;16.948;2023-08-01T19:49:55;98966.09;;;23.52;56.44
64753;BME280;61095;52.454;16.948;2023-08-01T19:54:55;98955.50;;;23.51;56.25
64753;BME280;61095;52.454;16.948;2023-08-01T19:59:55;98945.06;;;23.48;56.39
64753;BME280;61095;52.454;16.948;2023-08-01T20:04:57;98941.69;;;23.46;56.27
64753;BME280;61095;52.454;16.948;2023-08-01T20:09:57;98963.41;;;23.44;56.41
64753;BME280;61095;52.454;16.948;2023-08-01T20:14:59;98971.13;;;23.39;56.24
64753;BME280;61095;52.454;16.948;2023-08-01T20:20:01;98978.84;;;23.34;56.04
64753;BME280;61095;52.454;16.948;2023-08-01T20:25:02;98995.50;;;23.29;56.10
64753;BME280;61095;52.454;16.948;2023-08-01T20:30:03;98997.81;;;23.24;55.97
64753;BME280;61095;52.454;16.948;2023-08-01T20:35:06;99007.53;;;23.17;56.14
64753;BME280;61095;52.454;16.948;2023-08-01T20:40:07;99009.38;;;23.08;56.19
64753;BME280;61095;52.454;16.948;2023-08-01T20:45:09;99011.03;;;23.01;55.87
64753;BME280;61095;52.454;16.948;2023-08-01T20:50:11;99020.75;;;22.94;55.51
64753;BME280;61095;52.454;16.948;2023-08-01T20:55:12;99019.00;;;22.85;55.67
64753;BME280;61095;52.454;16.948;2023-08-01T21:00:12;99024.53;;;22.75;54.80
64753;BME280;61095;52.454;16.948;2023-08-01T21:05:14;99032.72;;;22.66;55.18
64753;BME280;61095;52.454;16.948;2023-08-01T21:10:15;99033.63;;;22.57;54.58
64753;BME280;61095;52.454;16.948;2023-08-01T21:15:15;99032.06;;;22.46;54.44
64753;BME280;61095;52.454;16.948;2023-08-01T21:20:17;99039.06;;;22.39;54.44
64753;BME280;61095;52.454;16.948;2023-08-01T21:25:18;99027.41;;;22.30;54.41
64753;BME280;61095;52.454;16.948;2023-08-01T21:30:18;99022.97;;;22.21;54.21
64753;BME280;61095;52.454;16.948;2023-08-01T21:35:20;99031.69;;;22.15;54.13
64753;BME280;61095;52.454;16.948;2023-08-01T21:40:20;99036.84;;;22.08;54.02
64753;BME280;61095;52.454;16.948;2023-08-01T21:45:20;99035.47;;;22.04;53.54
64753;BME280;61095;52.454;16.948;2023-08-01T21:50:22;99043.31;;;21.98;53.79
64753;BME280;61095;52.454;16.948;2023-08-01T21:55:22;99040.38;;;21.91;54.03
